Terminal Aerodrome Forecast
Issued by NWS

Home | Current Version | Previous Version | Text Only | Print | Product List | Glossary On
Versions: 1 2 3 4 5 6 7 8 9 10 11 12 13 14 15 16 17 18 19 20 21
842
FTUS46 KSEW 011722
TAFPAE
TAF
KPAE 011722Z 0118/0218 18012G20KT P6SM BKN018 OVC070
      TEMPO 0118/0122 SCT018 BKN070
     FM012200 19010KT P6SM BKN030 OVC070
     FM020300 18008KT P6SM BKN025 OVC070
     FM020900 17006KT P6SM OVC015=

USA.gov is the U.S. government's official web portal to all federal, state and local government web resources and services.